createdAt,value
2022-12-27T00:00:01.847Z,4.00
2022-12-27T00:02:29.273Z,4.00
2022-12-27T00:04:56.555Z,4.00
2022-12-27T00:07:24.113Z,4.00
2022-12-27T00:09:51.650Z,3.90
2022-12-27T00:12:18.907Z,4.00
2022-12-27T00:14:46.094Z,4.00
2022-12-27T00:17:13.637Z,4.00
2022-12-27T00:19:40.864Z,4.00
2022-12-27T00:22:08.195Z,4.00
2022-12-27T00:24:35.963Z,4.00
2022-12-27T00:27:03.233Z,4.00
2022-12-27T00:29:30.454Z,4.00
2022-12-27T00:31:57.811Z,3.90
2022-12-27T00:34:25.520Z,4.00
2022-12-27T00:36:52.704Z,3.90
2022-12-27T00:39:20.289Z,3.90
2022-12-27T00:41:47.442Z,3.90
2022-12-27T00:44:14.727Z,3.90
2022-12-27T00:46:41.806Z,3.90
2022-12-27T00:49:09.144Z,3.90
2022-12-27T00:51:37.161Z,3.90
2022-12-27T00:54:04.636Z,3.90
2022-12-27T00:56:31.983Z,3.90
2022-12-27T00:59:03.666Z,3.90
2022-12-27T01:01:36.209Z,3.90
2022-12-27T01:04:04.021Z,3.80
2022-12-27T01:06:33.093Z,3.80
2022-12-27T01:09:02.466Z,3.80
2022-12-27T01:11:30.696Z,3.80
2022-12-27T01:14:00.607Z,3.80
2022-12-27T01:16:29.894Z,3.80
2022-12-27T01:18:58.717Z,3.70
2022-12-27T01:21:26.368Z,3.70
2022-12-27T01:23:53.996Z,3.70
2022-12-27T01:26:23.238Z,3.70
2022-12-27T01:28:51.230Z,3.70
2022-12-27T01:31:21.806Z,3.70
2022-12-27T01:33:49.497Z,3.70
2022-12-27T01:36:18.675Z,3.70
2022-12-27T01:38:48.229Z,3.60
2022-12-27T01:41:38.852Z,3.60
2022-12-27T01:44:40.031Z,3.60
2022-12-27T01:47:31.969Z,3.60
2022-12-27T01:50:33.715Z,3.60
2022-12-27T01:53:13.014Z,3.60
2022-12-27T01:56:02.342Z,3.60
2022-12-27T01:58:35.810Z,3.60
2022-12-27T02:01:05.168Z,3.60
2022-12-27T02:03:51.064Z,3.60
2022-12-27T02:06:19.749Z,3.50
2022-12-27T02:08:55.979Z,3.50
2022-12-27T02:11:48.545Z,3.50
2022-12-27T02:14:28.715Z,3.50
2022-12-27T02:16:59.802Z,3.50
2022-12-27T02:20:09.530Z,3.50
2022-12-27T02:23:14.400Z,3.50
2022-12-27T02:25:50.974Z,3.50
2022-12-27T02:28:51.521Z,3.50
2022-12-27T02:31:44.067Z,3.50
2022-12-27T02:34:18.645Z,3.50
2022-12-27T02:36:46.839Z,3.50
2022-12-27T02:39:16.931Z,3.50
2022-12-27T02:42:05.011Z,3.50
2022-12-27T02:44:50.922Z,3.50
2022-12-27T02:47:41.762Z,3.50
2022-12-27T02:50:29.874Z,3.50
2022-12-27T02:53:21.884Z,3.50
2022-12-27T02:56:22.820Z,3.50
2022-12-27T02:59:29.588Z,3.50
2022-12-27T03:02:37.959Z,3.50
2022-12-27T03:05:33.207Z,3.50
2022-12-27T03:08:23.152Z,3.50
2022-12-27T03:11:20.016Z,3.50
2022-12-27T03:14:08.582Z,3.50
2022-12-27T03:16:57.962Z,3.50
2022-12-27T03:20:04.173Z,3.50
2022-12-27T03:22:51.904Z,3.50
2022-12-27T03:25:31.593Z,3.50
2022-12-27T03:28:31.943Z,3.50
2022-12-27T03:31:28.721Z,3.50
2022-12-27T03:34:05.122Z,3.50
2022-12-27T03:36:53.140Z,3.60
2022-12-27T03:39:30.588Z,3.60
2022-12-27T03:42:25.046Z,3.60
2022-12-27T03:44:52.725Z,3.60
2022-12-27T03:47:37.935Z,3.60
2022-12-27T03:50:10.965Z,3.60
2022-12-27T03:52:53.329Z,3.60
2022-12-27T03:55:20.793Z,3.70
2022-12-27T03:57:48.067Z,3.70
2022-12-27T04:00:15.630Z,3.70
2022-12-27T04:02:43.121Z,3.70
2022-12-27T04:05:11.694Z,3.60
2022-12-27T04:07:39.135Z,3.70
2022-12-27T04:10:25.363Z,3.70
2022-12-27T04:13:11.103Z,3.70
2022-12-27T04:15:56.814Z,3.70
2022-12-27T04:18:42.663Z,3.70
2022-12-27T04:21:28.415Z,3.70
2022-12-27T04:24:14.144Z,3.70
2022-12-27T04:27:00.086Z,3.70
2022-12-27T04:29:45.981Z,3.70
2022-12-27T04:32:31.761Z,3.80
2022-12-27T04:34:58.882Z,3.80
2022-12-27T04:37:26.142Z,3.80
2022-12-27T04:40:12.076Z,3.80
2022-12-27T04:42:58.023Z,3.90
2022-12-27T04:45:43.766Z,3.90
2022-12-27T04:48:32.603Z,3.90
2022-12-27T04:51:18.874Z,3.90
2022-12-27T04:54:04.943Z,3.90
2022-12-27T04:56:32.330Z,4.00
2022-12-27T04:59:22.247Z,4.00
2022-12-27T05:02:04.891Z,4.00
2022-12-27T05:04:34.979Z,4.00
2022-12-27T05:07:22.346Z,4.10
2022-12-27T05:10:08.509Z,4.10
2022-12-27T05:13:14.352Z,4.10
2022-12-27T05:15:41.517Z,4.10
2022-12-27T05:18:08.692Z,4.20
2022-12-27T05:20:36.089Z,4.10
2022-12-27T05:23:22.111Z,4.10
2022-12-27T05:25:49.185Z,4.20
2022-12-27T05:28:16.585Z,4.20
2022-12-27T05:30:44.822Z,4.20
2022-12-27T05:33:12.397Z,4.30
2022-12-27T05:35:40.208Z,4.30
2022-12-27T05:38:07.532Z,4.30
2022-12-27T05:40:35.412Z,4.30
2022-12-27T05:43:04.305Z,4.30
2022-12-27T05:45:32.736Z,4.30
2022-12-27T05:48:00.450Z,4.40
2022-12-27T05:50:28.032Z,4.40
2022-12-27T05:52:56.182Z,4.40
2022-12-27T05:55:23.455Z,4.40
2022-12-27T05:57:50.569Z,4.40
2022-12-27T06:00:18.150Z,4.40
2022-12-27T06:02:45.670Z,4.40
2022-12-27T06:05:13.225Z,4.40
2022-12-27T06:07:43.602Z,4.40
2022-12-27T06:10:11.036Z,4.40
2022-12-27T06:12:38.600Z,4.40
2022-12-27T06:15:07.466Z,4.50
2022-12-27T06:17:34.678Z,4.40
2022-12-27T06:20:01.943Z,4.50
2022-12-27T06:22:29.214Z,4.50
2022-12-27T06:24:56.382Z,4.50
2022-12-27T06:27:23.603Z,4.50
2022-12-27T06:29:50.888Z,4.50
2022-12-27T06:32:17.989Z,4.50
2022-12-27T06:34:45.799Z,4.60
2022-12-27T06:37:13.226Z,4.60
2022-12-27T06:39:40.520Z,4.50
2022-12-27T06:42:07.740Z,4.60
2022-12-27T06:44:34.892Z,4.60
2022-12-27T06:47:02.168Z,4.60
2022-12-27T06:49:33.083Z,4.60
2022-12-27T06:52:00.322Z,4.60
2022-12-27T06:54:27.998Z,4.60
2022-12-27T06:56:57.090Z,4.60
2022-12-27T06:59:24.768Z,4.60
2022-12-27T07:01:52.030Z,4.60
2022-12-27T07:04:19.396Z,4.60
2022-12-27T07:06:46.769Z,4.60
2022-12-27T07:09:13.963Z,4.60
2022-12-27T07:11:41.153Z,4.60
2022-12-27T07:14:11.043Z,4.60
2022-12-27T07:16:38.638Z,4.60
2022-12-27T07:19:05.947Z,4.60
2022-12-27T07:21:33.185Z,4.60
2022-12-27T07:24:00.354Z,4.60
2022-12-27T07:26:30.578Z,4.60
2022-12-27T07:29:03.283Z,4.60
2022-12-27T07:31:32.525Z,4.60
2022-12-27T07:34:04.695Z,4.60
2022-12-27T07:36:40.286Z,4.60
2022-12-27T07:39:08.737Z,4.60
2022-12-27T07:41:36.976Z,4.60
2022-12-27T07:44:05.177Z,4.60
2022-12-27T07:46:33.288Z,4.60
2022-12-27T07:49:00.929Z,4.60
2022-12-27T07:51:29.289Z,4.60
2022-12-27T07:53:56.668Z,4.60
2022-12-27T07:56:27.165Z,4.70
2022-12-27T07:58:56.666Z,4.70
2022-12-27T08:01:25.570Z,4.70
2022-12-27T08:03:53.098Z,4.70
2022-12-27T08:06:30.510Z,4.70
2022-12-27T08:09:00.268Z,4.70
2022-12-27T08:11:27.640Z,4.70
2022-12-27T08:13:54.967Z,4.70
2022-12-27T08:16:26.662Z,4.70
2022-12-27T08:18:54.100Z,4.70
2022-12-27T08:21:21.825Z,4.70
2022-12-27T08:23:49.018Z,4.70
2022-12-27T08:26:16.605Z,4.70
2022-12-27T08:28:43.901Z,4.70
2022-12-27T08:31:13.050Z,4.70
2022-12-27T08:33:42.293Z,4.70
2022-12-27T08:39:02.239Z,4.70
2022-12-27T08:41:32.157Z,4.70
2022-12-27T08:43:59.274Z,4.70
2022-12-27T08:46:26.580Z,4.70
2022-12-27T08:48:53.844Z,4.70
2022-12-27T08:51:33.085Z,4.70
2022-12-27T08:54:03.255Z,4.70
2022-12-27T08:56:30.451Z,4.70
2022-12-27T08:58:57.722Z,4.70
2022-12-27T09:01:26.080Z,4.80
2022-12-27T09:03:54.034Z,4.80
2022-12-27T09:06:23.367Z,4.80
2022-12-27T09:08:52.319Z,4.80
2022-12-27T09:11:22.525Z,4.90
2022-12-27T09:13:50.040Z,4.90
2022-12-27T09:16:23.964Z,4.90
2022-12-27T09:18:53.717Z,4.90
2022-12-27T09:21:22.776Z,4.90
2022-12-27T09:23:51.632Z,4.90
2022-12-27T09:26:21.959Z,4.90
2022-12-27T09:28:50.356Z,4.90
2022-12-27T09:31:19.518Z,5.00
2022-12-27T09:33:46.969Z,5.00
2022-12-27T09:36:26.323Z,5.00
2022-12-27T09:38:55.274Z,5.00
2022-12-27T09:45:03.851Z,5.00
2022-12-27T09:47:39.415Z,5.00
2022-12-27T09:50:19.200Z,5.00
2022-12-27T09:53:14.254Z,5.00
2022-12-27T09:55:46.860Z,5.10
2022-12-27T09:58:22.084Z,5.10
2022-12-27T10:00:52.394Z,5.10
2022-12-27T10:03:24.061Z,5.10
2022-12-27T10:06:09.830Z,5.10
2022-12-27T10:08:51.302Z,5.10
2022-12-27T10:11:41.867Z,5.10
2022-12-27T10:14:50.645Z,5.20
2022-12-27T10:17:30.755Z,5.20
2022-12-27T10:20:24.627Z,5.20
2022-12-27T10:22:54.966Z,5.20
2022-12-27T10:25:24.730Z,5.20
2022-12-27T10:27:58.751Z,5.20
2022-12-27T10:30:28.641Z,5.30
2022-12-27T10:32:55.970Z,5.30
2022-12-27T10:35:24.377Z,5.30
2022-12-27T10:37:53.900Z,5.30
2022-12-27T10:41:08.271Z,5.30
2022-12-27T10:43:43.160Z,5.40
2022-12-27T10:46:21.119Z,5.40
2022-12-27T10:49:20.199Z,5.40
2022-12-27T10:51:43.535Z,5.40
2022-12-27T10:54:28.207Z,5.50
2022-12-27T10:56:56.427Z,5.50
2022-12-27T10:59:30.035Z,5.50
2022-12-27T11:02:03.303Z,5.60
2022-12-27T11:04:33.208Z,5.60
2022-12-27T11:07:02.008Z,5.50
2022-12-27T11:09:33.071Z,5.60
2022-12-27T11:12:23.868Z,5.50
2022-12-27T11:15:08.680Z,5.50
2022-12-27T11:17:45.880Z,5.50
2022-12-27T11:20:16.079Z,5.50
2022-12-27T11:23:12.473Z,5.60
2022-12-27T11:25:58.099Z,5.60
2022-12-27T11:28:27.890Z,5.60
2022-12-27T11:31:02.054Z,5.70
2022-12-27T11:33:37.436Z,5.60
2022-12-27T11:36:05.063Z,5.70
2022-12-27T11:38:34.722Z,5.70
2022-12-27T11:41:07.227Z,5.70
2022-12-27T11:43:47.433Z,5.80
2022-12-27T11:46:41.186Z,5.80
2022-12-27T11:49:17.679Z,5.80
2022-12-27T11:52:07.909Z,5.80
2022-12-27T11:54:55.358Z,5.80
2022-12-27T11:57:35.383Z,5.80
2022-12-27T12:00:27.196Z,5.80
2022-12-27T12:03:13.433Z,5.80
2022-12-27T12:06:09.017Z,5.70
2022-12-27T12:09:14.613Z,5.70
2022-12-27T12:11:54.896Z,5.70
2022-12-27T12:14:41.533Z,5.70
2022-12-27T12:17:46.115Z,5.70
2022-12-27T12:20:51.127Z,5.80
2022-12-27T12:23:55.435Z,5.80
2022-12-27T12:26:26.068Z,5.80
2022-12-27T12:29:20.589Z,5.90
2022-12-27T12:32:06.607Z,5.90
2022-12-27T12:34:50.166Z,6.00
2022-12-27T12:38:02.641Z,6.00
2022-12-27T12:40:33.224Z,6.00
2022-12-27T12:43:39.783Z,6.10
2022-12-27T12:46:26.385Z,6.10
2022-12-27T12:49:23.211Z,6.00
2022-12-27T12:52:19.394Z,6.00
2022-12-27T12:55:01.744Z,6.00
2022-12-27T12:57:37.745Z,5.90
2022-12-27T13:00:47.164Z,5.90
2022-12-27T13:03:47.625Z,6.00
2022-12-27T13:06:40.541Z,6.00
2022-12-27T13:09:31.759Z,6.00
2022-12-27T13:12:24.285Z,6.00
2022-12-27T13:14:57.383Z,6.00
2022-12-27T13:17:48.435Z,6.00
2022-12-27T13:20:23.618Z,6.10
2022-12-27T13:23:20.325Z,6.10
2022-12-27T13:26:00.672Z,6.00
2022-12-27T13:28:51.743Z,6.00
2022-12-27T13:32:01.222Z,6.00
2022-12-27T13:34:28.464Z,6.00
2022-12-27T13:37:16.750Z,5.90
2022-12-27T13:40:11.166Z,5.90
2022-12-27T13:42:44.821Z,5.90
2022-12-27T13:45:26.945Z,5.90
2022-12-27T13:48:16.006Z,5.80
2022-12-27T13:51:05.231Z,5.80
2022-12-27T13:54:09.835Z,5.70
2022-12-27T13:56:54.921Z,5.70
2022-12-27T13:59:36.964Z,5.70
2022-12-27T14:02:37.668Z,5.70
2022-12-27T14:05:42.488Z,5.60
2022-12-27T14:08:39.532Z,5.60
2022-12-27T14:11:21.915Z,5.60
2022-12-27T14:13:49.880Z,5.50
2022-12-27T14:16:41.279Z,5.50
2022-12-27T14:19:15.913Z,5.50
2022-12-27T14:22:04.957Z,5.50
2022-12-27T14:24:55.783Z,5.50
2022-12-27T14:27:49.309Z,5.50
2022-12-27T14:30:41.318Z,5.40
2022-12-27T14:33:46.237Z,5.40
2022-12-27T14:36:25.438Z,5.30
2022-12-27T14:38:52.453Z,5.30
2022-12-27T14:41:59.720Z,5.30
2022-12-27T14:44:54.656Z,5.30
2022-12-27T14:47:33.693Z,5.20
2022-12-27T14:50:37.218Z,5.20
2022-12-27T14:53:29.309Z,5.20
2022-12-27T14:55:56.582Z,5.20
2022-12-27T14:58:34.544Z,5.10
2022-12-27T15:01:28.666Z,5.10
2022-12-27T15:04:01.943Z,5.10
2022-12-27T15:06:59.158Z,5.10
2022-12-27T15:09:26.274Z,5.00
2022-12-27T15:12:11.418Z,5.00
2022-12-27T15:14:56.119Z,5.00
2022-12-27T15:17:55.093Z,4.90
2022-12-27T15:20:32.727Z,4.90
2022-12-27T15:23:26.839Z,5.00
2022-12-27T15:26:25.883Z,4.90
2022-12-27T15:29:19.400Z,4.90
2022-12-27T15:31:46.487Z,4.90
2022-12-27T15:34:40.659Z,4.80
2022-12-27T15:37:45.973Z,4.80
2022-12-27T15:40:36.382Z,4.70
2022-12-27T15:43:27.503Z,4.70
2022-12-27T15:46:36.107Z,4.70
2022-12-27T15:49:21.757Z,4.70
2022-12-27T15:52:12.607Z,4.60
2022-12-27T15:54:43.496Z,4.60
2022-12-27T15:57:38.760Z,4.60
2022-12-27T16:00:33.320Z,4.50
2022-12-27T16:03:03.399Z,4.50
2022-12-27T16:05:47.783Z,4.50
2022-12-27T16:08:24.336Z,4.40
2022-12-27T16:10:52.705Z,4.40
2022-12-27T16:13:42.826Z,4.40
2022-12-27T16:16:47.855Z,4.40
2022-12-27T16:19:36.865Z,4.40
2022-12-27T16:22:38.673Z,4.40
2022-12-27T16:25:24.209Z,4.30
2022-12-27T16:28:19.939Z,4.30
2022-12-27T16:30:50.445Z,4.30
2022-12-27T16:33:26.747Z,4.30
2022-12-27T16:36:13.753Z,4.30
2022-12-27T16:38:53.102Z,4.30
2022-12-27T16:41:44.998Z,4.30
2022-12-27T16:44:24.498Z,4.30
2022-12-27T16:47:03.569Z,4.30
2022-12-27T16:50:09.044Z,4.20
2022-12-27T16:52:53.473Z,4.20
2022-12-27T16:55:40.774Z,4.20
2022-12-27T16:58:20.041Z,4.20
2022-12-27T17:00:49.215Z,4.20
2022-12-27T17:03:22.766Z,4.10
2022-12-27T17:08:42.019Z,4.10
2022-12-27T17:11:31.785Z,4.10
2022-12-27T17:14:06.228Z,4.10
2022-12-27T17:16:51.538Z,4.10
2022-12-27T17:19:38.053Z,4.00
2022-12-27T17:22:11.105Z,4.00
2022-12-27T17:24:39.091Z,4.00
2022-12-27T17:27:28.475Z,4.00
2022-12-27T17:30:03.366Z,3.90
2022-12-27T17:32:49.417Z,3.90
2022-12-27T17:35:28.660Z,3.90
2022-12-27T17:38:25.415Z,3.90
2022-12-27T17:41:04.551Z,3.90
2022-12-27T17:44:17.357Z,3.90
2022-12-27T17:47:15.238Z,3.80
2022-12-27T17:49:43.915Z,3.80
2022-12-27T17:52:35.892Z,3.80
2022-12-27T17:55:38.697Z,3.80
2022-12-27T17:58:08.977Z,3.70
2022-12-27T18:00:53.751Z,3.70
2022-12-27T18:03:21.508Z,3.70
2022-12-27T18:05:49.983Z,3.70
2022-12-27T18:08:29.063Z,3.70
2022-12-27T18:11:01.867Z,3.60
2022-12-27T18:13:37.724Z,3.60
2022-12-27T18:16:27.398Z,3.60
2022-12-27T18:19:00.123Z,3.60
2022-12-27T18:21:29.339Z,3.60
2022-12-27T18:23:57.427Z,3.50
2022-12-27T18:26:39.694Z,3.60
2022-12-27T18:29:11.659Z,3.50
2022-12-27T18:31:49.962Z,3.50
2022-12-27T18:34:26.912Z,3.50
2022-12-27T18:36:59.559Z,3.50
2022-12-27T18:39:29.857Z,3.50
2022-12-27T18:41:58.399Z,3.50
2022-12-27T18:44:28.990Z,3.60
2022-12-27T18:47:00.776Z,3.60
2022-12-27T18:49:35.197Z,3.60
2022-12-27T18:52:12.283Z,3.60
2022-12-27T18:54:43.229Z,3.60
2022-12-27T18:57:33.796Z,3.60
2022-12-27T19:00:11.856Z,3.70
2022-12-27T19:02:39.334Z,3.70
2022-12-27T19:05:20.756Z,3.70
2022-12-27T19:07:52.064Z,3.80
2022-12-27T19:10:25.191Z,3.80
2022-12-27T19:12:53.997Z,3.80
2022-12-27T19:15:45.443Z,3.80
2022-12-27T19:18:38.445Z,3.80
2022-12-27T19:21:07.077Z,3.90
2022-12-27T19:23:43.291Z,3.90
2022-12-27T19:26:16.856Z,3.90
2022-12-27T19:29:00.417Z,3.90
2022-12-27T19:31:30.845Z,4.00
2022-12-27T19:34:07.068Z,4.00
2022-12-27T19:36:42.745Z,4.00
2022-12-27T19:39:37.279Z,4.00
2022-12-27T19:42:07.458Z,4.00
2022-12-27T19:44:34.838Z,4.10
2022-12-27T19:47:02.038Z,4.10
2022-12-27T19:49:42.566Z,4.10
2022-12-27T19:52:21.019Z,4.10
2022-12-27T19:54:49.673Z,4.20
2022-12-27T19:57:17.176Z,4.20
2022-12-27T19:59:44.676Z,4.20
2022-12-27T20:02:12.371Z,4.20
2022-12-27T20:04:39.872Z,4.20
2022-12-27T20:07:07.200Z,4.30
2022-12-27T20:09:34.460Z,4.30
2022-12-27T20:12:02.836Z,4.30
2022-12-27T20:14:31.359Z,4.30
2022-12-27T20:16:58.637Z,4.30
2022-12-27T20:19:26.169Z,4.30
2022-12-27T20:21:53.557Z,4.30
2022-12-27T20:24:20.939Z,4.30
2022-12-27T20:26:48.158Z,4.30
2022-12-27T20:29:15.814Z,4.30
2022-12-27T20:31:50.746Z,4.30
2022-12-27T20:34:18.791Z,4.30
2022-12-27T20:36:46.712Z,4.20
2022-12-27T20:39:13.961Z,4.20
2022-12-27T20:41:41.171Z,4.20
2022-12-27T20:44:08.929Z,4.20
2022-12-27T20:46:36.304Z,4.20
2022-12-27T20:49:03.507Z,4.20
2022-12-27T20:51:33.707Z,4.10
2022-12-27T20:54:05.222Z,4.10
2022-12-27T20:56:32.711Z,4.10
2022-12-27T20:59:01.704Z,4.10
2022-12-27T21:01:29.342Z,4.10
2022-12-27T21:03:57.031Z,4.00
2022-12-27T21:06:27.844Z,4.00
2022-12-27T21:08:57.781Z,4.00
2022-12-27T21:11:31.658Z,4.00
2022-12-27T21:14:04.074Z,4.00
2022-12-27T21:16:35.601Z,4.00
2022-12-27T21:19:05.282Z,4.10
2022-12-27T21:21:38.549Z,4.00
2022-12-27T21:24:07.793Z,4.10
2022-12-27T21:26:37.694Z,4.10
2022-12-27T21:29:07.153Z,4.10
2022-12-27T21:31:35.050Z,4.10
2022-12-27T21:34:03.222Z,4.10
2022-12-27T21:36:32.401Z,4.10
2022-12-27T21:38:59.595Z,4.10
2022-12-27T21:41:29.300Z,4.10
2022-12-27T21:43:57.892Z,4.10
2022-12-27T21:46:30.952Z,4.10
2022-12-27T21:49:04.637Z,4.20
2022-12-27T21:51:34.207Z,4.20
2022-12-27T21:54:04.847Z,4.20
2022-12-27T21:56:32.070Z,4.20
2022-12-27T21:59:00.645Z,4.20
2022-12-27T22:01:50.101Z,4.20
2022-12-27T22:04:20.590Z,4.20
2022-12-27T22:06:48.147Z,4.20
2022-12-27T22:09:16.472Z,4.20
2022-12-27T22:11:43.871Z,4.20
2022-12-27T22:14:11.030Z,4.20
2022-12-27T22:16:39.909Z,4.20
2022-12-27T22:19:10.896Z,4.30
2022-12-27T22:21:39.712Z,4.30
2022-12-27T22:24:07.196Z,4.30
2022-12-27T22:26:40.840Z,4.30
2022-12-27T22:29:08.307Z,4.30
2022-12-27T22:31:38.253Z,4.30
2022-12-27T22:34:06.556Z,4.30
2022-12-27T22:36:34.707Z,4.40
2022-12-27T22:39:02.636Z,4.40
2022-12-27T22:41:35.171Z,4.40
2022-12-27T22:44:05.853Z,4.40
2022-12-27T22:49:23.041Z,4.50
2022-12-27T22:51:51.091Z,4.50
2022-12-27T22:54:18.897Z,4.50
2022-12-27T22:56:51.374Z,4.60
2022-12-27T22:59:19.076Z,4.60
2022-12-27T23:01:46.594Z,4.60
2022-12-27T23:04:14.992Z,4.60
2022-12-27T23:06:42.946Z,4.60
2022-12-27T23:09:12.303Z,4.60
2022-12-27T23:11:41.433Z,4.60
2022-12-27T23:14:16.971Z,4.70
2022-12-27T23:16:46.890Z,4.70
2022-12-27T23:19:16.659Z,4.70
2022-12-27T23:21:44.324Z,4.70
2022-12-27T23:24:11.937Z,4.70
2022-12-27T23:26:39.957Z,4.80
2022-12-27T23:29:07.844Z,4.80
2022-12-27T23:31:35.153Z,4.80
2022-12-27T23:34:02.375Z,4.80
2022-12-27T23:36:32.233Z,4.80
2022-12-27T23:38:59.494Z,4.90
2022-12-27T23:41:26.813Z,4.90
2022-12-27T23:43:55.962Z,4.90
2022-12-27T23:46:34.291Z,4.90
2022-12-27T23:49:03.817Z,4.90
2022-12-27T23:51:32.084Z,4.90
2022-12-27T23:53:59.471Z,5.00
2022-12-27T23:56:30.045Z,5.00
2022-12-27T23:58:59.510Z,5.00
